createdAt,value
2023-05-24T00:01:43.299Z,48.10
2023-05-24T00:04:16.714Z,48.10
2023-05-24T00:06:50.087Z,48.10
2023-05-24T00:09:23.615Z,48.40
2023-05-24T00:11:58.274Z,48.00
2023-05-24T00:14:31.857Z,47.80
2023-05-24T00:17:05.391Z,47.70
2023-05-24T00:19:39.303Z,47.60
2023-05-24T00:22:14.190Z,47.50
2023-05-24T00:24:47.658Z,47.40
2023-05-24T00:27:22.254Z,47.30
2023-05-24T00:29:55.689Z,47.20
2023-05-24T00:32:29.004Z,47.20
2023-05-24T00:35:03.406Z,47.10
2023-05-24T00:37:40.211Z,47.10
2023-05-24T00:40:14.216Z,47.00
2023-05-24T00:42:48.841Z,47.00
2023-05-24T00:45:23.243Z,46.90
2023-05-24T00:47:56.902Z,46.80
2023-05-24T00:50:30.287Z,46.80
2023-05-24T00:53:04.413Z,46.80
2023-05-24T00:55:37.871Z,46.70
2023-05-24T00:58:12.818Z,46.70
2023-05-24T01:00:49.822Z,46.80
2023-05-24T01:03:23.141Z,47.00
2023-05-24T01:05:57.077Z,48.00
2023-05-24T01:08:47.591Z,48.60
2023-05-24T01:11:30.138Z,49.40
2023-05-24T01:14:16.251Z,48.90
2023-05-24T01:16:54.189Z,49.30
2023-05-24T01:19:51.637Z,49.50
2023-05-24T01:22:39.627Z,49.60
2023-05-24T01:25:20.366Z,49.50
2023-05-24T01:27:55.827Z,49.50
2023-05-24T01:30:30.577Z,49.70
2023-05-24T01:33:04.686Z,49.80
2023-05-24T01:35:42.299Z,49.90
2023-05-24T01:38:16.238Z,50.10
2023-05-24T01:40:51.407Z,50.20
2023-05-24T01:43:32.736Z,50.30
2023-05-24T01:46:14.899Z,50.30
2023-05-24T01:48:59.961Z,50.30
2023-05-24T01:51:39.784Z,50.30
2023-05-24T01:54:14.772Z,50.30
2023-05-24T01:56:50.218Z,50.40
2023-05-24T01:59:27.044Z,50.50
2023-05-24T02:02:00.689Z,50.60
2023-05-24T02:04:34.184Z,50.60
2023-05-24T02:07:07.521Z,50.60
2023-05-24T02:09:40.908Z,50.60
2023-05-24T02:12:14.279Z,50.70
2023-05-24T02:14:51.144Z,50.80
2023-05-24T02:17:25.767Z,50.90
2023-05-24T02:19:59.653Z,50.90
2023-05-24T02:22:33.140Z,50.90
2023-05-24T02:25:08.056Z,51.00
2023-05-24T02:27:41.990Z,51.00
2023-05-24T02:30:16.456Z,51.00
2023-05-24T02:32:49.786Z,50.90
2023-05-24T02:35:23.305Z,50.90
2023-05-24T02:37:58.649Z,51.00
2023-05-24T02:40:31.914Z,51.10
2023-05-24T02:43:05.315Z,51.20
2023-05-24T02:45:40.018Z,51.20
2023-05-24T02:48:13.270Z,51.40
2023-05-24T02:50:46.854Z,51.40
2023-05-24T02:53:20.130Z,51.40
2023-05-24T02:55:53.714Z,51.50
2023-05-24T02:58:29.041Z,51.60
2023-05-24T03:01:04.350Z,51.50
2023-05-24T03:03:37.714Z,51.70
2023-05-24T03:06:14.065Z,51.80
2023-05-24T03:08:47.297Z,51.80
2023-05-24T03:11:22.268Z,51.80
2023-05-24T03:13:55.905Z,51.80
2023-05-24T03:16:32.073Z,51.80
2023-05-24T03:19:08.370Z,51.80
2023-05-24T03:21:43.419Z,52.40
2023-05-24T03:24:16.811Z,51.90
2023-05-24T03:26:50.134Z,51.90
2023-05-24T03:29:24.069Z,51.90
2023-05-24T03:32:00.292Z,52.00
2023-05-24T03:34:33.762Z,52.00
2023-05-24T03:37:07.216Z,52.00
2023-05-24T03:39:41.261Z,52.00
2023-05-24T03:42:36.966Z,52.00
2023-05-24T03:45:13.135Z,52.10
2023-05-24T03:47:47.898Z,52.20
2023-05-24T03:50:21.145Z,52.20
2023-05-24T03:52:54.358Z,52.10
2023-05-24T03:55:27.659Z,52.10
2023-05-24T03:58:00.946Z,52.20
2023-05-24T04:00:34.913Z,52.10
2023-05-24T04:03:09.990Z,52.20
2023-05-24T04:05:43.353Z,52.20
2023-05-24T04:08:16.895Z,52.20
2023-05-24T04:10:50.117Z,52.30
2023-05-24T04:13:23.626Z,52.30
2023-05-24T04:15:57.014Z,52.30
2023-05-24T04:18:31.746Z,52.40
2023-05-24T04:21:05.958Z,52.40
2023-05-24T04:23:39.266Z,52.60
2023-05-24T04:26:12.661Z,52.60
2023-05-24T04:28:46.846Z,52.60
2023-05-24T04:31:21.864Z,52.70
2023-05-24T04:33:57.321Z,52.70
2023-05-24T04:36:31.476Z,52.80
2023-05-24T04:39:05.684Z,52.70
2023-05-24T04:41:38.953Z,52.70
2023-05-24T04:44:12.208Z,52.60
2023-05-24T04:46:45.591Z,52.60
2023-05-24T04:49:20.462Z,53.20
2023-05-24T04:51:55.142Z,52.60
2023-05-24T04:54:28.579Z,52.60
2023-05-24T04:57:01.896Z,52.70
2023-05-24T04:59:35.301Z,52.70
2023-05-24T05:02:08.740Z,52.70
2023-05-24T05:04:43.429Z,52.70
2023-05-24T05:07:16.829Z,52.70
2023-05-24T05:09:50.106Z,52.70
2023-05-24T05:12:23.395Z,52.70
2023-05-24T05:14:56.625Z,52.70
2023-05-24T05:17:29.954Z,52.80
2023-05-24T05:20:04.933Z,52.70
2023-05-24T05:22:38.427Z,52.50
2023-05-24T05:25:11.652Z,52.40
2023-05-24T05:27:45.056Z,52.60
2023-05-24T05:30:18.417Z,52.40
2023-05-24T05:32:51.679Z,52.40
2023-05-24T05:35:26.386Z,52.30
2023-05-24T05:37:59.675Z,52.20
2023-05-24T05:40:32.876Z,52.40
2023-05-24T05:43:08.457Z,52.40
2023-05-24T05:45:41.805Z,52.40
2023-05-24T05:48:15.203Z,52.50
2023-05-24T05:50:49.841Z,52.50
2023-05-24T05:53:23.043Z,52.50
2023-05-24T05:55:57.027Z,52.50
2023-05-24T05:58:30.288Z,52.50
2023-05-24T06:01:03.524Z,53.20
2023-05-24T06:03:36.968Z,53.10
2023-05-24T06:06:12.032Z,53.00
2023-05-24T06:08:45.297Z,53.10
2023-05-24T06:11:18.525Z,53.00
2023-05-24T06:13:51.759Z,52.90
2023-05-24T06:16:25.168Z,52.80
2023-05-24T06:19:05.809Z,52.70
2023-05-24T06:21:47.615Z,52.60
2023-05-24T06:24:21.482Z,52.50
2023-05-24T06:26:54.629Z,52.40
2023-05-24T06:29:27.917Z,52.90
2023-05-24T06:32:01.392Z,52.80
2023-05-24T06:34:34.834Z,53.10
2023-05-24T06:37:10.381Z,52.90
2023-05-24T06:39:43.665Z,51.80
2023-05-24T06:42:17.024Z,51.00
2023-05-24T06:44:52.585Z,50.50
2023-05-24T06:47:25.994Z,50.60
2023-05-24T06:49:59.398Z,50.70
2023-05-24T06:52:34.033Z,50.80
2023-05-24T06:55:07.845Z,50.90
2023-05-24T06:57:41.168Z,50.90
2023-05-24T07:00:15.359Z,50.80
2023-05-24T07:02:48.853Z,50.80
2023-05-24T07:05:22.250Z,50.80
2023-05-24T07:07:56.923Z,51.00
2023-05-24T07:10:30.146Z,51.10
2023-05-24T07:13:03.990Z,51.30
2023-05-24T07:15:37.280Z,51.20
2023-05-24T07:18:10.616Z,51.20
2023-05-24T07:20:44.286Z,51.40
2023-05-24T07:23:19.255Z,51.40
2023-05-24T07:25:52.754Z,51.40
2023-05-24T07:28:26.074Z,51.40
2023-05-24T07:30:59.336Z,51.40
2023-05-24T07:33:32.669Z,51.50
2023-05-24T07:36:08.648Z,51.50
2023-05-24T07:38:43.524Z,51.50
2023-05-24T07:41:17.064Z,51.50
2023-05-24T07:43:50.805Z,51.40
2023-05-24T07:46:23.971Z,51.40
2023-05-24T07:48:57.326Z,51.30
2023-05-24T07:51:30.555Z,51.30
2023-05-24T07:54:05.571Z,51.40
2023-05-24T07:56:38.848Z,51.40
2023-05-24T07:59:12.124Z,51.40
2023-05-24T08:01:45.585Z,51.40
2023-05-24T08:04:18.869Z,51.40
2023-05-24T08:06:52.209Z,51.40
2023-05-24T08:09:27.918Z,51.40
2023-05-24T08:12:01.213Z,51.40
2023-05-24T08:14:34.623Z,51.50
2023-05-24T08:17:07.882Z,51.50
2023-05-24T08:19:41.201Z,51.60
2023-05-24T08:22:14.738Z,51.90
2023-05-24T08:24:49.455Z,51.60
2023-05-24T08:27:22.739Z,51.60
2023-05-24T08:29:57.098Z,51.60
2023-05-24T08:32:30.669Z,51.60
2023-05-24T08:35:19.443Z,51.50
2023-05-24T08:37:53.957Z,51.20
2023-05-24T08:40:28.600Z,50.50
2023-05-24T08:43:03.040Z,49.50
2023-05-24T08:45:38.746Z,48.80
2023-05-24T08:48:13.299Z,48.00
2023-05-24T08:50:47.466Z,48.30
2023-05-24T08:53:23.626Z,47.80
2023-05-24T08:55:58.584Z,47.70
2023-05-24T08:58:32.545Z,47.80
2023-05-24T09:01:07.323Z,47.80
2023-05-24T09:03:42.211Z,48.20
2023-05-24T09:06:18.293Z,48.30
2023-05-24T09:08:52.605Z,48.40
2023-05-24T09:11:29.442Z,48.60
2023-05-24T09:14:03.940Z,48.90
2023-05-24T09:16:37.563Z,49.60
2023-05-24T09:19:10.850Z,50.00
2023-05-24T09:21:44.634Z,50.20
2023-05-24T09:24:17.747Z,50.20
2023-05-24T09:26:52.404Z,50.40
2023-05-24T09:29:26.252Z,50.40
2023-05-24T09:32:00.228Z,50.50
2023-05-24T09:34:40.051Z,50.70
2023-05-24T09:37:16.850Z,51.30
2023-05-24T09:39:51.540Z,50.70
2023-05-24T09:42:28.736Z,50.90
2023-05-24T09:45:02.684Z,50.80
2023-05-24T09:47:37.170Z,50.70
2023-05-24T09:50:14.359Z,50.60
2023-05-24T09:52:47.594Z,50.50
2023-05-24T09:55:21.996Z,50.30
2023-05-24T09:58:04.036Z,50.20
2023-05-24T10:00:40.170Z,49.90
2023-05-24T10:03:15.223Z,49.70
2023-05-24T10:05:50.150Z,49.50
2023-05-24T10:08:23.987Z,49.40
2023-05-24T10:10:57.718Z,49.20
2023-05-24T10:13:33.607Z,49.20
2023-05-24T10:16:06.995Z,49.30
2023-05-24T10:18:41.181Z,49.30
2023-05-24T10:21:15.248Z,49.20
2023-05-24T10:23:52.837Z,49.20
2023-05-24T10:26:28.418Z,49.20
2023-05-24T10:29:16.823Z,49.30
2023-05-24T10:31:51.418Z,49.20
2023-05-24T10:34:24.945Z,49.30
2023-05-24T10:36:59.705Z,49.40
2023-05-24T10:39:34.662Z,49.40
2023-05-24T10:42:09.936Z,49.60
2023-05-24T10:44:44.961Z,49.90
2023-05-24T10:47:21.627Z,50.00
2023-05-24T10:49:59.251Z,50.10
2023-05-24T10:52:36.617Z,50.10
2023-05-24T10:55:11.668Z,50.20
2023-05-24T10:57:44.988Z,50.30
2023-05-24T11:03:09.895Z,50.30
2023-05-24T11:05:54.458Z,50.20
2023-05-24T11:08:33.251Z,50.30
2023-05-24T11:11:23.917Z,50.30
2023-05-24T11:14:02.297Z,50.30
2023-05-24T11:16:40.157Z,50.40
2023-05-24T11:19:17.348Z,50.30
2023-05-24T11:22:00.315Z,50.10
2023-05-24T11:24:34.827Z,50.10
2023-05-24T11:27:08.858Z,50.00
2023-05-24T11:29:43.327Z,50.00
2023-05-24T11:32:19.063Z,50.00
2023-05-24T11:34:52.500Z,50.60
2023-05-24T11:37:38.455Z,51.10
2023-05-24T11:40:20.317Z,51.50
2023-05-24T11:42:54.014Z,51.40
2023-05-24T11:45:27.147Z,51.10
2023-05-24T11:48:05.936Z,51.10
2023-05-24T11:50:49.390Z,50.90
2023-05-24T11:53:24.896Z,51.00
2023-05-24T11:55:58.183Z,51.00
2023-05-24T11:58:43.830Z,51.30
2023-05-24T12:01:27.519Z,51.50
2023-05-24T12:04:02.402Z,51.40
2023-05-24T12:06:37.484Z,51.30
2023-05-24T12:09:13.467Z,51.20
2023-05-24T12:11:50.041Z,51.10
2023-05-24T12:14:27.040Z,51.00
2023-05-24T12:17:01.321Z,50.80
2023-05-24T12:19:36.427Z,50.60
2023-05-24T12:22:10.669Z,50.50
2023-05-24T12:24:43.861Z,50.50
2023-05-24T12:27:17.119Z,50.50
2023-05-24T12:29:50.733Z,50.60
2023-05-24T12:32:24.411Z,50.70
2023-05-24T12:34:58.934Z,50.70
2023-05-24T12:37:32.318Z,50.90
2023-05-24T12:40:17.438Z,51.30
2023-05-24T12:42:52.860Z,54.30
2023-05-24T12:45:27.886Z,54.20
2023-05-24T12:48:03.032Z,55.50
2023-05-24T12:50:37.957Z,55.40
2023-05-24T12:53:11.765Z,55.90
2023-05-24T12:55:44.905Z,56.40
2023-05-24T12:58:19.901Z,56.70
2023-05-24T13:00:53.360Z,56.70
2023-05-24T13:03:26.846Z,56.90
2023-05-24T13:06:01.619Z,56.70
2023-05-24T13:08:34.859Z,56.40
2023-05-24T13:11:08.165Z,56.00
2023-05-24T13:13:41.496Z,55.50
2023-05-24T13:16:15.114Z,55.10
2023-05-24T13:18:48.492Z,54.70
2023-05-24T13:21:23.368Z,54.30
2023-05-24T13:23:56.704Z,53.80
2023-05-24T13:26:29.995Z,53.70
2023-05-24T13:31:40.635Z,53.40
2023-05-24T13:34:14.497Z,53.10
2023-05-24T13:36:49.188Z,52.90
2023-05-24T13:39:22.872Z,52.70
2023-05-24T13:41:56.440Z,52.60
2023-05-24T13:44:30.696Z,52.60
2023-05-24T13:47:04.268Z,52.60
2023-05-24T13:49:37.888Z,52.60
2023-05-24T13:52:12.494Z,52.50
2023-05-24T13:54:46.349Z,52.30
2023-05-24T13:57:19.426Z,52.10
2023-05-24T13:59:52.657Z,52.10
2023-05-24T14:02:25.939Z,51.90
2023-05-24T14:05:13.596Z,51.90
2023-05-24T14:07:53.883Z,51.80
2023-05-24T14:10:27.435Z,51.80
2023-05-24T14:13:20.763Z,51.80
2023-05-24T14:15:54.107Z,52.30
2023-05-24T14:18:27.643Z,51.60
2023-05-24T14:21:00.975Z,51.60
2023-05-24T14:23:35.688Z,51.70
2023-05-24T14:26:09.197Z,51.70
2023-05-24T14:28:42.436Z,51.70
2023-05-24T14:31:15.767Z,51.60
2023-05-24T14:33:49.097Z,51.50
2023-05-24T14:36:22.417Z,51.40
2023-05-24T14:38:57.049Z,51.30
2023-05-24T14:41:30.339Z,51.10
2023-05-24T14:44:03.664Z,51.00
2023-05-24T14:46:37.071Z,50.90
2023-05-24T14:49:10.482Z,50.80
2023-05-24T14:51:43.794Z,50.60
2023-05-24T14:54:18.547Z,50.60
2023-05-24T14:56:51.859Z,50.40
2023-05-24T14:59:25.190Z,50.40
2023-05-24T15:01:58.432Z,50.20
2023-05-24T15:04:32.040Z,50.10
2023-05-24T15:07:05.407Z,50.10
2023-05-24T15:09:40.046Z,50.10
2023-05-24T15:12:13.340Z,50.00
2023-05-24T15:14:46.657Z,50.00
2023-05-24T15:17:21.692Z,49.90
2023-05-24T15:19:56.680Z,49.70
2023-05-24T15:22:30.058Z,49.70
2023-05-24T15:25:04.997Z,49.70
2023-05-24T15:27:38.382Z,49.70
2023-05-24T15:30:11.983Z,49.80
2023-05-24T15:32:46.162Z,50.60
2023-05-24T15:35:19.439Z,51.00
2023-05-24T15:37:52.720Z,51.10
2023-05-24T15:40:27.493Z,51.20
2023-05-24T15:43:00.797Z,51.20
2023-05-24T15:45:34.179Z,51.50
2023-05-24T15:48:07.708Z,52.00
2023-05-24T15:53:19.760Z,52.00
2023-05-24T15:55:57.437Z,51.90
2023-05-24T15:58:31.022Z,52.30
2023-05-24T16:01:04.386Z,51.80
2023-05-24T16:03:38.247Z,51.80
2023-05-24T16:06:11.759Z,51.60
2023-05-24T16:08:45.094Z,51.50
2023-05-24T16:11:21.597Z,51.30
2023-05-24T16:13:55.313Z,51.10
2023-05-24T16:16:29.113Z,50.90
2023-05-24T16:19:02.212Z,50.80
2023-05-24T16:21:36.383Z,50.60
2023-05-24T16:24:09.704Z,50.40
2023-05-24T16:26:44.340Z,50.20
2023-05-24T16:29:18.751Z,50.00
2023-05-24T16:31:52.182Z,49.90
2023-05-24T16:34:26.091Z,49.80
2023-05-24T16:36:59.425Z,49.70
2023-05-24T16:39:36.616Z,49.70
2023-05-24T16:42:11.281Z,49.70
2023-05-24T16:44:44.527Z,49.60
2023-05-24T16:47:17.889Z,49.40
2023-05-24T16:49:51.267Z,49.40
2023-05-24T16:52:24.513Z,49.20
2023-05-24T16:54:57.748Z,49.20
2023-05-24T16:57:32.357Z,49.00
2023-05-24T17:00:06.569Z,48.90
2023-05-24T17:02:39.883Z,48.90
2023-05-24T17:05:13.187Z,48.90
2023-05-24T17:07:46.486Z,48.90
2023-05-24T17:10:20.034Z,48.90
2023-05-24T17:12:55.005Z,48.90
2023-05-24T17:15:28.231Z,48.80
2023-05-24T17:18:01.533Z,48.70
2023-05-24T17:20:34.886Z,48.70
2023-05-24T17:23:08.162Z,48.70
2023-05-24T17:25:41.350Z,48.60
2023-05-24T17:28:16.284Z,48.60
2023-05-24T17:30:49.502Z,48.60
2023-05-24T17:33:23.500Z,48.50
2023-05-24T17:35:57.631Z,48.50
2023-05-24T17:38:33.188Z,48.50
2023-05-24T17:41:09.143Z,48.50
2023-05-24T17:43:44.297Z,48.50
2023-05-24T17:46:17.610Z,48.40
2023-05-24T17:48:52.117Z,48.40
2023-05-24T17:51:26.041Z,48.40
2023-05-24T17:53:59.261Z,48.30
2023-05-24T17:56:32.500Z,48.20
2023-05-24T17:59:07.493Z,48.10
2023-05-24T18:01:41.094Z,48.10
2023-05-24T18:04:14.478Z,48.30
2023-05-24T18:06:47.799Z,48.60
2023-05-24T18:09:22.112Z,49.20
2023-05-24T18:11:55.379Z,49.00
2023-05-24T18:14:32.115Z,49.60
2023-05-24T18:17:06.107Z,49.80
2023-05-24T18:19:39.496Z,49.80
2023-05-24T18:22:12.720Z,49.80
2023-05-24T18:24:46.000Z,50.00
2023-05-24T18:27:19.298Z,50.20
2023-05-24T18:29:54.077Z,50.20
2023-05-24T18:32:27.825Z,50.40
2023-05-24T18:35:00.972Z,50.50
2023-05-24T18:37:34.219Z,50.60
2023-05-24T18:40:08.854Z,50.60
2023-05-24T18:42:42.647Z,50.70
2023-05-24T18:45:17.149Z,51.30
2023-05-24T18:47:50.264Z,50.70
2023-05-24T18:50:23.670Z,50.80
2023-05-24T18:52:57.068Z,50.60
2023-05-24T18:55:30.313Z,51.40
2023-05-24T18:58:03.670Z,51.10
2023-05-24T19:00:38.351Z,51.20
2023-05-24T19:03:13.266Z,51.40
2023-05-24T19:05:46.855Z,51.30
2023-05-24T19:08:20.232Z,51.20
2023-05-24T19:10:53.497Z,51.10
2023-05-24T19:13:27.526Z,51.10
2023-05-24T19:16:02.210Z,51.10
2023-05-24T19:18:35.492Z,51.00
2023-05-24T19:21:09.054Z,51.00
2023-05-24T19:23:42.374Z,51.00
2023-05-24T19:26:18.060Z,51.00
2023-05-24T19:28:52.105Z,51.20
2023-05-24T19:31:27.978Z,51.40
2023-05-24T19:34:01.366Z,51.40
2023-05-24T19:36:34.787Z,51.40
2023-05-24T19:39:08.057Z,51.40
2023-05-24T19:41:41.301Z,51.40
2023-05-24T19:44:14.623Z,51.40
2023-05-24T19:46:49.205Z,51.40
2023-05-24T19:49:22.513Z,51.30
2023-05-24T19:51:55.879Z,51.30
2023-05-24T19:54:29.470Z,51.30
2023-05-24T19:57:03.085Z,51.30
2023-05-24T19:59:36.370Z,51.30
2023-05-24T20:02:10.941Z,51.30
2023-05-24T20:04:44.272Z,51.10
2023-05-24T20:07:17.833Z,51.00
2023-05-24T20:09:51.083Z,51.00
2023-05-24T20:12:24.283Z,50.90
2023-05-24T20:14:57.588Z,50.90
2023-05-24T20:17:32.523Z,50.80
2023-05-24T20:20:07.180Z,50.70
2023-05-24T20:22:40.538Z,50.70
2023-05-24T20:25:13.817Z,50.70
2023-05-24T20:27:47.242Z,50.80
2023-05-24T20:30:20.611Z,51.10
2023-05-24T20:32:55.276Z,51.30
2023-05-24T20:35:28.756Z,51.40
2023-05-24T20:38:02.011Z,51.50
2023-05-24T20:40:35.324Z,51.50
2023-05-24T20:43:09.146Z,51.60
2023-05-24T20:45:42.441Z,51.60
2023-05-24T20:48:17.604Z,51.60
2023-05-24T20:50:50.971Z,51.70
2023-05-24T20:53:24.266Z,51.60
2023-05-24T20:55:57.671Z,51.70
2023-05-24T20:58:31.581Z,51.60
2023-05-24T21:01:04.685Z,51.70
2023-05-24T21:03:39.394Z,51.80
2023-05-24T21:06:14.002Z,51.90
2023-05-24T21:08:47.355Z,52.00
2023-05-24T21:11:20.634Z,52.00
2023-05-24T21:13:53.873Z,52.60
2023-05-24T21:16:27.259Z,52.00
2023-05-24T21:19:01.983Z,51.90
2023-05-24T21:21:35.282Z,52.00
2023-05-24T21:24:08.821Z,52.00
2023-05-24T21:26:42.121Z,51.80
2023-05-24T21:29:15.417Z,51.70
2023-05-24T21:31:49.652Z,51.50
2023-05-24T21:34:24.235Z,51.30
2023-05-24T21:36:57.479Z,51.20
2023-05-24T21:39:30.834Z,51.10
2023-05-24T21:42:04.169Z,51.00
2023-05-24T21:44:37.494Z,50.80
2023-05-24T21:47:10.762Z,50.70
2023-05-24T21:49:45.481Z,50.60
2023-05-24T21:52:18.879Z,50.60
2023-05-24T21:54:52.139Z,50.50
2023-05-24T21:57:26.507Z,50.50
2023-05-24T21:59:59.907Z,50.40
2023-05-24T22:02:33.171Z,50.30
2023-05-24T22:05:08.386Z,50.30
2023-05-24T22:07:41.699Z,50.30
2023-05-24T22:10:15.135Z,50.20
2023-05-24T22:12:48.489Z,50.10
2023-05-24T22:15:21.902Z,50.10
2023-05-24T22:17:58.809Z,50.00
2023-05-24T22:20:34.074Z,50.00
2023-05-24T22:23:07.681Z,50.00
2023-05-24T22:25:41.594Z,49.90
2023-05-24T22:28:15.061Z,50.00
2023-05-24T22:30:48.504Z,49.90
2023-05-24T22:33:21.722Z,49.90
2023-05-24T22:35:56.755Z,49.80
2023-05-24T22:38:30.007Z,49.80
2023-05-24T22:41:03.217Z,49.80
2023-05-24T22:43:36.468Z,49.80
2023-05-24T22:46:10.824Z,49.80
2023-05-24T22:48:44.220Z,49.80
2023-05-24T22:51:19.044Z,49.70
2023-05-24T22:53:54.645Z,49.70
2023-05-24T22:56:28.332Z,49.70
2023-05-24T22:59:01.577Z,49.70
2023-05-24T23:01:36.054Z,49.60
2023-05-24T23:04:20.695Z,49.70
2023-05-24T23:06:56.710Z,49.60
2023-05-24T23:09:34.598Z,49.60
2023-05-24T23:12:08.554Z,49.60
2023-05-24T23:14:46.365Z,49.50
2023-05-24T23:17:20.591Z,49.50
2023-05-24T23:19:53.967Z,49.50
2023-05-24T23:22:29.832Z,49.40
2023-05-24T23:25:03.449Z,49.60
2023-05-24T23:27:36.692Z,50.40
2023-05-24T23:30:10.522Z,50.10
2023-05-24T23:32:43.638Z,50.50
2023-05-24T23:35:17.181Z,50.80
2023-05-24T23:37:53.318Z,51.00
2023-05-24T23:40:28.646Z,51.10
2023-05-24T23:43:01.872Z,51.10
2023-05-24T23:45:35.152Z,51.10
2023-05-24T23:48:08.552Z,51.10
2023-05-24T23:50:53.092Z,51.10
2023-05-24T23:53:28.342Z,51.20
2023-05-24T23:56:01.589Z,51.20
2023-05-24T23:58:36.001Z,51.20
